Castelli, Argentina
Current Conditions -  °F | °C
As of 11:00 PM on Friday 31 Oct 2014 (Local Time) from SAEZ Reporting Station
Clear Clear  
Wind Chill: 55°   Ceiling: Unl
Heat Index: 55°   Visibility: 6mi
Dew Point: 43°   Wind: 14mph
Humidity: 63%   Direction: 150°SSE
Pressure: 30.09"   Gusts: NA
Location:  36.1°S, 57.78°W
Report Text: SAEZ 010200Z 15012KT CAVOK 13/06 Q1019
Loading
Personal Weather Stations






























Interactive Weather Map
Tropical Storm Tracking
New forecast layout! Learn more

10-Day Weather Forecast

Advertisements
Track Severe Weather on mobile